createdAt,value
2023-04-16T00:00:29.661Z,278.3333
2023-04-16T00:01:33.561Z,282.7500
2023-04-16T00:02:37.624Z,283.0000
2023-04-16T00:03:41.815Z,283.6667
2023-04-16T00:04:45.863Z,289.7500
2023-04-16T00:05:49.746Z,288.5833
2023-04-16T00:06:53.655Z,287.0833
2023-04-16T00:07:57.530Z,281.3333
2023-04-16T00:09:01.414Z,283.5000
2023-04-16T00:10:05.333Z,284.3333
2023-04-16T00:11:09.193Z,293.6667
2023-04-16T00:12:13.083Z,290.9167
2023-04-16T00:13:16.985Z,286.5000
2023-04-16T00:14:20.877Z,290.1667
2023-04-16T00:15:24.784Z,287.0000
2023-04-16T00:16:28.995Z,285.6667
2023-04-16T00:17:32.963Z,288.1667
2023-04-16T00:18:36.841Z,286.2500
2023-04-16T00:19:40.742Z,284.8333
2023-04-16T00:20:44.615Z,285.0000
2023-04-16T00:21:48.754Z,287.7500
2023-04-16T00:22:52.652Z,289.5000
2023-04-16T00:23:56.745Z,289.3333
2023-04-16T00:25:00.646Z,290.1667
2023-04-16T00:26:04.555Z,291.2500
2023-04-16T00:27:08.440Z,287.5833
2023-04-16T00:28:12.350Z,286.1667
2023-04-16T00:29:16.236Z,283.0833
2023-04-16T00:30:20.132Z,281.5833
2023-04-16T00:31:24.350Z,290.0000
2023-04-16T00:32:28.379Z,291.0000
2023-04-16T00:33:32.287Z,290.6667
2023-04-16T00:34:32.496Z,286.9091
2023-04-16T00:35:36.392Z,289.9167
2023-04-16T00:36:40.329Z,290.5833
2023-04-16T00:37:44.206Z,295.5833
2023-04-16T00:38:48.320Z,293.2500
2023-04-16T00:39:52.231Z,292.3333
2023-04-16T00:40:56.100Z,296.3333
2023-04-16T00:41:59.995Z,286.9167
2023-04-16T00:43:03.875Z,286.0833
2023-04-16T00:44:07.791Z,289.0833
2023-04-16T00:45:11.676Z,291.6667
2023-04-16T00:46:15.610Z,287.0833
2023-04-16T00:47:19.484Z,295.5833
2023-04-16T00:48:23.378Z,286.2500
2023-04-16T00:49:27.278Z,290.0000
2023-04-16T00:50:31.160Z,293.2500
2023-04-16T00:51:35.060Z,289.8333
2023-04-16T00:52:38.936Z,296.5833
2023-04-16T00:53:42.838Z,295.0000
2023-04-16T00:54:46.720Z,291.2500
2023-04-16T00:55:50.634Z,289.7500
2023-04-16T00:56:54.503Z,288.9167
2023-04-16T00:57:58.410Z,294.0833
2023-04-16T00:59:02.328Z,285.5000
2023-04-16T01:00:06.227Z,288.8333
2023-04-16T01:01:10.138Z,288.0000
2023-04-16T01:02:14.108Z,288.1667
2023-04-16T01:03:18.038Z,291.8333
2023-04-16T01:04:22.020Z,294.0833
2023-04-16T01:05:25.898Z,289.4167
2023-04-16T01:06:29.804Z,289.9167
2023-04-16T01:07:33.690Z,292.9167
2023-04-16T01:08:37.597Z,298.1667
2023-04-16T01:09:41.520Z,287.1667
2023-04-16T01:10:45.410Z,295.0833
2023-04-16T01:11:49.310Z,296.6667
2023-04-16T01:12:53.202Z,292.9167
2023-04-16T01:13:57.105Z,295.9167
2023-04-16T01:15:00.995Z,295.5833
2023-04-16T01:16:04.960Z,295.0000
2023-04-16T01:17:09.039Z,296.3333
2023-04-16T01:18:12.967Z,296.0833
2023-04-16T01:19:16.814Z,299.9167
2023-04-16T01:20:20.713Z,289.5833
2023-04-16T01:21:24.588Z,289.9167
2023-04-16T01:22:28.507Z,291.8333
2023-04-16T01:23:32.371Z,300.6667
2023-04-16T01:24:36.287Z,291.0833
2023-04-16T01:25:40.157Z,290.6667
2023-04-16T01:26:44.058Z,289.8333
2023-04-16T01:27:47.936Z,299.0833
2023-04-16T01:28:52.157Z,295.3333
2023-04-16T01:29:56.052Z,298.5000
2023-04-16T01:30:59.946Z,288.5833
2023-04-16T01:32:04.139Z,285.5000
2023-04-16T01:33:08.031Z,286.6667
2023-04-16T01:34:11.937Z,288.5000
2023-04-16T01:35:15.821Z,296.1667
2023-04-16T01:36:19.731Z,294.9167
2023-04-16T01:37:23.617Z,288.9167
2023-04-16T01:38:27.515Z,293.0000
2023-04-16T01:39:31.602Z,293.7500
2023-04-16T01:40:35.511Z,293.0000
2023-04-16T01:41:39.406Z,294.9167
2023-04-16T01:42:43.309Z,294.5833
2023-04-16T01:43:47.423Z,296.6667
2023-04-16T01:44:51.308Z,294.3333
2023-04-16T01:45:55.207Z,291.3333
2023-04-16T01:46:59.140Z,294.7500
2023-04-16T01:48:03.084Z,291.8333
2023-04-16T01:49:07.047Z,298.3333
2023-04-16T01:50:11.012Z,295.5000
2023-04-16T01:51:14.913Z,291.7500
2023-04-16T01:52:18.795Z,292.1667
2023-04-16T01:53:22.692Z,294.3333
2023-04-16T01:54:26.805Z,290.0833
2023-04-16T01:55:30.710Z,298.1667
2023-04-16T01:56:34.588Z,296.3333
2023-04-16T01:57:38.509Z,298.2500
2023-04-16T01:58:42.379Z,298.7500
2023-04-16T01:59:46.277Z,296.1667
2023-04-16T02:00:50.167Z,296.8333
2023-04-16T02:01:54.099Z,297.0000
2023-04-16T02:02:58.069Z,298.6667
2023-04-16T02:04:02.339Z,297.0833
2023-04-16T02:05:07.097Z,298.8333
2023-04-16T02:06:07.810Z,301.8000
2023-04-16T02:07:11.730Z,300.7500
2023-04-16T02:08:15.605Z,295.2500
2023-04-16T02:09:19.718Z,300.1667
2023-04-16T02:10:31.156Z,303.0833
2023-04-16T02:11:24.457Z,299.5000
2023-04-16T02:12:28.363Z,300.9167
2023-04-16T02:13:32.281Z,302.0833
2023-04-16T02:14:36.475Z,297.5000
2023-04-16T02:15:40.347Z,298.8333
2023-04-16T02:16:40.877Z,295.0000
2023-04-16T02:17:44.854Z,299.4167
2023-04-16T02:18:48.718Z,300.9167
2023-04-16T02:19:52.646Z,300.9167
2023-04-16T02:20:56.524Z,295.5000
2023-04-16T02:22:00.428Z,300.1667
2023-04-16T02:23:04.289Z,295.6667
2023-04-16T02:24:08.203Z,297.0833
2023-04-16T02:25:12.076Z,294.5000
2023-04-16T02:26:15.980Z,298.5000
2023-04-16T02:27:19.884Z,303.8333
2023-04-16T02:28:23.758Z,296.3333
2023-04-16T02:29:27.817Z,299.2500
2023-04-16T02:30:31.719Z,295.5833
2023-04-16T02:31:35.667Z,291.0000
2023-04-16T02:32:39.574Z,302.2500
2023-04-16T02:33:43.478Z,298.3333
2023-04-16T02:34:47.381Z,294.7500
2023-04-16T02:35:51.271Z,299.7500
2023-04-16T02:36:55.171Z,297.1667
2023-04-16T02:37:59.080Z,295.9167
2023-04-16T02:39:02.949Z,297.0000
2023-04-16T02:40:06.832Z,302.0833
2023-04-16T02:41:10.736Z,303.2500
2023-04-16T02:42:14.626Z,307.8333
2023-04-16T02:43:18.524Z,307.1667
2023-04-16T02:44:22.652Z,301.2500
2023-04-16T02:45:26.538Z,299.3333
2023-04-16T02:46:30.912Z,302.5833
2023-04-16T02:47:34.823Z,297.1667
2023-04-16T02:48:38.731Z,296.5833
2023-04-16T02:49:42.622Z,294.9167
2023-04-16T02:50:46.509Z,302.9167
2023-04-16T02:51:50.615Z,301.9167
2023-04-16T02:52:54.509Z,298.7500
2023-04-16T02:53:58.394Z,297.1667
2023-04-16T02:55:02.307Z,304.6667
2023-04-16T02:56:06.210Z,305.2500
2023-04-16T02:57:10.340Z,301.2500
2023-04-16T02:58:14.235Z,306.8333
2023-04-16T02:59:18.421Z,311.4167
2023-04-16T03:00:22.334Z,303.9167
2023-04-16T03:01:26.277Z,298.3333
2023-04-16T03:02:30.263Z,301.0000
2023-04-16T03:03:34.143Z,302.0833
2023-04-16T03:04:38.458Z,306.0833
2023-04-16T03:05:42.493Z,303.3333
2023-04-16T03:06:46.381Z,301.7500
2023-04-16T03:07:50.268Z,302.9167
2023-04-16T03:08:54.151Z,307.2500
2023-04-16T03:09:58.054Z,302.9167
2023-04-16T03:11:01.934Z,303.3333
2023-04-16T03:12:06.035Z,300.5000
2023-04-16T03:13:09.930Z,300.5833
2023-04-16T03:14:14.030Z,298.5000
2023-04-16T03:15:17.969Z,297.8333
2023-04-16T03:16:22.104Z,297.9167
2023-04-16T03:17:26.028Z,294.4167
2023-04-16T03:18:29.899Z,297.6667
2023-04-16T03:19:34.004Z,297.2500
2023-04-16T03:20:37.923Z,293.8333
2023-04-16T03:21:41.837Z,293.8333
2023-04-16T03:22:45.749Z,293.4167
2023-04-16T03:23:49.647Z,293.9167
2023-04-16T03:24:53.558Z,295.4167
2023-04-16T03:25:57.486Z,294.0000
2023-04-16T03:27:01.609Z,293.4167
2023-04-16T03:28:05.513Z,295.4167
2023-04-16T03:29:05.860Z,295.6364
2023-04-16T03:30:09.758Z,298.9167
2023-04-16T03:31:13.931Z,293.4167
2023-04-16T03:32:17.858Z,298.2500
2023-04-16T03:33:21.736Z,296.5000
2023-04-16T03:34:25.626Z,298.0833
2023-04-16T03:35:29.532Z,296.2500
2023-04-16T03:36:33.674Z,296.0833
2023-04-16T03:37:37.573Z,299.1667
2023-04-16T03:38:41.484Z,298.8333
2023-04-16T03:39:45.623Z,297.2500
2023-04-16T03:40:49.486Z,299.8333
2023-04-16T03:41:53.414Z,293.5000
2023-04-16T03:42:57.300Z,299.5833
2023-04-16T03:44:01.405Z,296.2500
2023-04-16T03:45:05.316Z,298.1667
2023-04-16T03:46:09.243Z,298.8333
2023-04-16T03:47:13.367Z,301.9167
2023-04-16T03:48:17.267Z,300.1667
2023-04-16T03:49:21.358Z,302.2500
2023-04-16T03:50:25.296Z,301.3333
2023-04-16T03:51:29.149Z,301.4167
2023-04-16T03:52:33.051Z,298.9167
2023-04-16T03:53:36.921Z,302.0833
2023-04-16T03:54:40.824Z,299.9167
2023-04-16T03:55:44.692Z,301.7500
2023-04-16T03:56:48.892Z,298.2500
2023-04-16T03:57:52.811Z,299.0000
2023-04-16T03:58:56.699Z,299.2500
2023-04-16T04:00:00.569Z,298.6667
2023-04-16T04:01:04.480Z,297.0000
2023-04-16T04:02:08.461Z,301.2500
2023-04-16T04:03:12.654Z,298.3333
2023-04-16T04:04:16.911Z,299.7500
2023-04-16T04:05:20.821Z,305.6667
2023-04-16T04:06:24.744Z,298.3333
2023-04-16T04:07:28.632Z,301.5000
2023-04-16T04:08:32.532Z,300.0000
2023-04-16T04:09:36.637Z,301.8333
2023-04-16T04:10:40.530Z,298.7500
2023-04-16T04:11:44.693Z,300.8333
2023-04-16T04:12:48.568Z,300.5833
2023-04-16T04:13:52.465Z,299.4167
2023-04-16T04:14:56.349Z,297.5000
2023-04-16T04:16:00.260Z,293.2500
2023-04-16T04:17:04.143Z,285.4167
2023-04-16T04:18:08.044Z,284.1667
2023-04-16T04:19:12.338Z,274.0000
2023-04-16T04:20:16.243Z,268.9167
2023-04-16T04:21:20.153Z,259.1667
2023-04-16T04:22:24.067Z,245.0000
2023-04-16T04:23:27.948Z,235.2500
2023-04-16T04:24:28.291Z,232.1818
2023-04-16T04:25:32.172Z,231.7500
2023-04-16T04:26:36.132Z,235.0000
2023-04-16T04:27:39.971Z,235.8333
2023-04-16T04:28:43.847Z,233.5833
2023-04-16T04:29:47.958Z,234.1667
2023-04-16T04:30:51.845Z,231.8333
2023-04-16T04:31:55.993Z,229.8333
2023-04-16T04:32:59.945Z,228.5833
2023-04-16T04:34:04.128Z,227.5000
2023-04-16T04:35:08.013Z,228.0000
2023-04-16T04:36:11.891Z,223.9167
2023-04-16T04:37:15.791Z,221.0000
2023-04-16T04:38:19.675Z,217.5833
2023-04-16T04:39:23.555Z,218.8333
2023-04-16T04:40:27.478Z,218.4167
2023-04-16T04:41:31.585Z,219.9167
2023-04-16T04:42:35.479Z,220.6667
2023-04-16T04:43:39.391Z,219.0000
2023-04-16T04:44:43.301Z,218.5833
2023-04-16T04:45:47.300Z,216.7500
2023-04-16T04:46:51.459Z,216.6667
2023-04-16T04:47:55.391Z,217.0833
2023-04-16T04:48:59.502Z,215.2500
2023-04-16T04:50:03.449Z,217.0000
2023-04-16T04:51:07.333Z,216.8333
2023-04-16T04:52:11.243Z,217.7500
2023-04-16T04:53:15.200Z,216.7500
2023-04-16T04:54:19.060Z,216.0000
2023-04-16T04:55:22.968Z,217.7500
2023-04-16T04:56:26.907Z,217.6667
2023-04-16T04:57:30.809Z,216.7500
2023-04-16T04:58:34.922Z,218.0833
2023-04-16T04:59:38.812Z,217.1667
2023-04-16T05:00:42.691Z,214.4167
2023-04-16T05:01:46.881Z,216.5000
2023-04-16T05:02:50.906Z,216.9167
2023-04-16T05:03:55.139Z,215.9167
2023-04-16T05:04:59.044Z,216.3333
2023-04-16T05:06:02.930Z,211.5833
2023-04-16T05:07:06.827Z,209.3333
2023-04-16T05:08:10.710Z,207.4167
2023-04-16T05:09:14.600Z,209.6667
2023-04-16T05:10:18.482Z,210.0833
2023-04-16T05:11:22.589Z,209.9167
2023-04-16T05:12:26.480Z,211.2500
2023-04-16T05:13:30.367Z,211.7500
2023-04-16T05:14:34.257Z,214.9167
2023-04-16T05:15:38.131Z,218.1667
2023-04-16T05:16:42.019Z,219.6667
2023-04-16T05:17:45.909Z,222.0833
2023-04-16T05:18:49.838Z,220.8333
2023-04-16T05:19:53.756Z,223.7500
2023-04-16T05:20:57.619Z,226.0000
2023-04-16T05:22:01.493Z,227.0000
2023-04-16T05:23:05.405Z,225.9167
2023-04-16T05:24:09.706Z,230.0000
2023-04-16T05:25:13.591Z,228.3333
2023-04-16T05:26:17.688Z,227.8333
2023-04-16T05:27:21.561Z,226.4167
2023-04-16T05:28:25.458Z,226.5833
2023-04-16T05:29:29.341Z,227.0833
2023-04-16T05:30:33.266Z,225.7500
2023-04-16T05:31:37.334Z,229.7500
2023-04-16T05:32:41.267Z,228.1667
2023-04-16T05:33:45.421Z,230.0833
2023-04-16T05:34:49.291Z,229.3333
2023-04-16T05:35:53.204Z,230.1667
2023-04-16T05:36:57.105Z,231.2500
2023-04-16T05:38:01.007Z,228.5833
2023-04-16T05:39:05.148Z,229.4167
2023-04-16T05:40:09.031Z,230.8333
2023-04-16T05:41:12.929Z,231.0833
2023-04-16T05:42:16.848Z,232.0833
2023-04-16T05:43:20.736Z,231.2500
2023-04-16T05:44:24.661Z,234.7500
2023-04-16T05:45:28.545Z,235.8333
2023-04-16T05:46:32.771Z,235.9167
2023-04-16T05:47:36.738Z,233.7500
2023-04-16T05:48:40.813Z,238.3333
2023-04-16T05:49:44.858Z,236.9167
2023-04-16T05:50:48.729Z,237.2500
2023-04-16T05:51:52.635Z,238.8333
2023-04-16T05:52:56.537Z,239.2500
2023-04-16T05:54:00.679Z,235.6667
2023-04-16T05:55:04.602Z,237.1667
2023-04-16T05:56:08.725Z,235.9167
2023-04-16T05:57:12.624Z,234.8333
2023-04-16T05:58:16.496Z,233.3333
2023-04-16T05:59:20.385Z,233.9167
2023-04-16T06:00:24.280Z,236.2500
2023-04-16T06:01:28.425Z,235.8333
2023-04-16T06:02:32.427Z,237.6667
2023-04-16T06:03:36.720Z,239.0000
2023-04-16T06:04:40.634Z,237.5833
2023-04-16T06:05:44.571Z,238.1667
2023-04-16T06:06:48.423Z,240.1667
2023-04-16T06:07:52.323Z,238.0000
2023-04-16T06:08:56.207Z,241.8333
2023-04-16T06:10:00.110Z,241.0833
2023-04-16T06:11:04.232Z,242.4167
2023-04-16T06:12:08.158Z,242.0000
2023-04-16T06:13:12.054Z,241.9167
2023-04-16T06:14:16.165Z,241.7500
2023-04-16T06:15:20.069Z,244.5833
2023-04-16T06:16:24.015Z,243.5833
2023-04-16T06:17:27.915Z,245.1667
2023-04-16T06:18:32.030Z,242.0000
2023-04-16T06:19:35.916Z,244.7500
2023-04-16T06:20:39.824Z,245.4167
2023-04-16T06:21:43.730Z,244.4167
2023-04-16T06:22:47.603Z,245.0833
2023-04-16T06:23:51.853Z,246.2500
2023-04-16T06:24:55.746Z,245.1667
2023-04-16T06:25:59.624Z,245.0833
2023-04-16T06:27:03.664Z,247.5833
2023-04-16T06:28:07.563Z,241.7500
2023-04-16T06:29:11.765Z,243.3333
2023-04-16T06:30:15.724Z,247.4167
2023-04-16T06:31:19.879Z,247.5000
2023-04-16T06:32:23.816Z,247.0000
2023-04-16T06:33:27.725Z,247.8333
2023-04-16T06:34:31.623Z,248.4167
2023-04-16T06:35:35.509Z,248.1667
2023-04-16T06:36:39.408Z,248.9167
2023-04-16T06:37:43.306Z,250.9167
2023-04-16T06:38:47.178Z,249.5833
2023-04-16T06:39:51.053Z,251.7500
2023-04-16T06:40:55.158Z,251.6667
2023-04-16T06:41:59.055Z,252.0000
2023-04-16T06:43:02.935Z,255.4167
2023-04-16T06:44:06.830Z,252.7500
2023-04-16T06:45:10.699Z,256.4167
2023-04-16T06:46:14.828Z,253.8333
2023-04-16T06:47:18.766Z,251.4167
2023-04-16T06:48:22.910Z,250.5833
2023-04-16T06:49:26.814Z,250.0000
2023-04-16T06:50:30.696Z,253.2500
2023-04-16T06:51:34.587Z,251.3333
2023-04-16T06:52:38.490Z,250.2500
2023-04-16T06:53:42.616Z,250.1667
2023-04-16T06:54:46.506Z,251.0000
2023-04-16T06:55:50.390Z,249.0833
2023-04-16T06:56:54.308Z,247.1667
2023-04-16T06:57:58.198Z,248.8333
2023-04-16T06:59:02.344Z,246.3333
2023-04-16T07:00:06.249Z,250.9167
2023-04-16T07:01:10.405Z,247.5000
2023-04-16T07:02:14.380Z,248.0000
2023-04-16T07:03:18.518Z,248.5000
2023-04-16T07:04:22.491Z,246.4167
2023-04-16T07:05:26.377Z,247.0833
2023-04-16T07:06:30.286Z,248.5833
2023-04-16T07:07:34.184Z,248.7500
2023-04-16T07:08:38.418Z,248.6667
2023-04-16T07:09:42.301Z,247.9167
2023-04-16T07:10:46.415Z,245.0833
2023-04-16T07:11:50.322Z,243.9167
2023-04-16T07:12:54.209Z,244.2500
2023-04-16T07:13:58.120Z,244.8333
2023-04-16T07:15:01.986Z,243.1667
2023-04-16T07:16:05.910Z,244.7500
2023-04-16T07:17:09.778Z,246.8333
2023-04-16T07:18:13.958Z,243.1667
2023-04-16T07:19:17.998Z,244.2500
2023-04-16T07:20:21.895Z,243.5833
2023-04-16T07:21:25.793Z,244.6667
2023-04-16T07:22:29.696Z,246.0000
2023-04-16T07:23:33.633Z,244.2500
2023-04-16T07:24:37.513Z,246.0000
2023-04-16T07:25:41.481Z,245.5833
2023-04-16T07:26:45.384Z,245.3333
2023-04-16T07:27:49.273Z,244.1667
2023-04-16T07:28:53.182Z,246.5833
2023-04-16T07:29:57.084Z,245.5833
2023-04-16T07:31:00.974Z,247.3333
2023-04-16T07:32:04.990Z,242.8333
2023-04-16T07:33:09.050Z,243.5833
2023-04-16T07:34:12.913Z,240.5833
2023-04-16T07:35:16.823Z,239.6667
2023-04-16T07:36:20.712Z,241.9167
2023-04-16T07:37:24.615Z,242.1667
2023-04-16T07:38:28.754Z,240.2500
2023-04-16T07:39:32.688Z,238.2500
2023-04-16T07:40:36.704Z,236.9167
2023-04-16T07:41:40.591Z,236.4167
2023-04-16T07:42:44.452Z,237.9167
2023-04-16T07:43:48.334Z,240.5833
2023-04-16T07:44:52.240Z,238.1667
2023-04-16T07:45:56.490Z,241.5833
2023-04-16T07:47:00.464Z,242.4167
2023-04-16T07:48:04.774Z,237.6667
2023-04-16T07:49:08.876Z,239.9167
2023-04-16T07:50:12.863Z,238.5000
2023-04-16T07:51:16.759Z,238.4167
2023-04-16T07:52:20.668Z,243.5833
2023-04-16T07:53:24.555Z,240.8333
2023-04-16T07:54:29.175Z,239.9167
2023-04-16T07:55:33.108Z,239.5000
2023-04-16T07:56:37.052Z,238.3333
2023-04-16T07:57:40.917Z,237.0000
2023-04-16T07:58:44.834Z,238.8333
2023-04-16T07:59:48.705Z,237.0000
2023-04-16T08:00:52.815Z,237.4167
2023-04-16T08:01:56.727Z,235.0000
2023-04-16T08:03:00.883Z,235.1667
2023-04-16T08:04:04.995Z,233.5833
2023-04-16T08:05:08.959Z,231.3333
2023-04-16T08:06:12.838Z,235.2500
2023-04-16T08:07:16.753Z,239.3333
2023-04-16T08:08:16.915Z,241.7273
2023-04-16T08:09:20.803Z,241.2500
2023-04-16T08:10:24.899Z,239.0833
2023-04-16T08:11:28.816Z,239.3333
2023-04-16T08:12:32.715Z,238.9167
2023-04-16T08:13:36.614Z,242.1667
2023-04-16T08:14:40.482Z,241.4167
2023-04-16T08:15:44.634Z,240.9167
2023-04-16T08:16:48.533Z,241.5833
2023-04-16T08:17:52.756Z,238.4167
2023-04-16T08:18:56.609Z,238.3333
2023-04-16T08:20:00.506Z,237.7500
2023-04-16T08:21:04.392Z,238.2500
2023-04-16T08:22:08.316Z,235.6667
2023-04-16T08:23:12.195Z,233.0000
2023-04-16T08:24:16.127Z,233.9167
2023-04-16T08:25:20.000Z,234.8333
2023-04-16T08:26:24.002Z,232.5000
2023-04-16T08:27:27.901Z,230.0833
2023-04-16T08:28:32.024Z,227.7500
2023-04-16T08:29:35.935Z,227.3333
2023-04-16T08:30:39.841Z,229.3333
2023-04-16T08:31:43.775Z,229.5833
2023-04-16T08:32:50.045Z,227.5833
2023-04-16T08:33:48.852Z,228.9091
2023-04-16T08:34:52.753Z,233.8333
2023-04-16T08:35:56.991Z,233.7500
2023-04-16T08:37:00.994Z,233.0000
2023-04-16T08:38:04.912Z,232.7500
2023-04-16T08:39:08.913Z,234.4167
2023-04-16T08:40:13.083Z,234.7500
2023-04-16T08:41:17.218Z,233.9167
2023-04-16T08:42:21.131Z,235.4167
2023-04-16T08:43:25.013Z,233.3333
2023-04-16T08:44:28.939Z,234.9167
2023-04-16T08:45:33.118Z,235.8333
2023-04-16T08:46:37.024Z,237.3333
2023-04-16T08:47:40.911Z,235.9167
2023-04-16T08:48:44.787Z,235.4167
2023-04-16T08:49:48.721Z,236.2500
2023-04-16T08:50:52.580Z,235.5000
2023-04-16T08:51:54.080Z,233.2727
2023-04-16T08:52:58.213Z,234.1667
2023-04-16T08:54:02.310Z,236.1667
2023-04-16T08:55:06.221Z,240.1667
2023-04-16T08:56:10.104Z,239.4167
2023-04-16T08:57:13.987Z,237.5000
2023-04-16T08:58:18.202Z,237.2500
2023-04-16T08:59:22.089Z,238.4167
2023-04-16T09:00:26.218Z,237.8333
2023-04-16T09:01:30.145Z,234.4167
2023-04-16T09:02:34.134Z,233.8333
2023-04-16T09:03:38.345Z,235.1667
2023-04-16T09:04:42.383Z,233.8333
2023-04-16T09:05:46.280Z,239.0833
2023-04-16T09:06:50.163Z,235.6667
2023-04-16T09:07:54.059Z,240.5833
2023-04-16T09:08:57.953Z,241.1667
2023-04-16T09:10:01.914Z,239.6667
2023-04-16T09:11:05.814Z,238.8333
2023-04-16T09:12:09.700Z,240.2500
2023-04-16T09:13:13.596Z,243.0833
2023-04-16T09:14:17.482Z,241.4167
2023-04-16T09:15:21.598Z,240.9167
2023-04-16T09:16:25.534Z,234.7500
2023-04-16T09:17:29.497Z,239.2500
2023-04-16T09:18:33.372Z,239.5833
2023-04-16T09:19:37.270Z,243.5000
2023-04-16T09:20:41.320Z,242.4167
2023-04-16T09:21:45.207Z,241.8333
2023-04-16T09:22:49.104Z,241.3333
2023-04-16T09:23:52.984Z,236.0000
2023-04-16T09:24:56.885Z,239.0833
2023-04-16T09:26:00.962Z,240.5000
2023-04-16T09:27:04.862Z,238.5833
2023-04-16T09:28:09.016Z,241.4167
2023-04-16T09:29:12.887Z,240.4167
2023-04-16T09:30:16.793Z,243.5000
2023-04-16T09:31:21.013Z,245.4167
2023-04-16T09:32:24.911Z,242.3333
2023-04-16T09:33:28.808Z,245.9167
2023-04-16T09:34:32.703Z,243.2500
2023-04-16T09:35:36.849Z,244.3333
2023-04-16T09:36:40.737Z,243.0833
2023-04-16T09:37:44.875Z,244.7500
2023-04-16T09:38:48.751Z,246.3333
2023-04-16T09:39:52.655Z,245.5000
2023-04-16T09:40:56.723Z,245.7500
2023-04-16T09:42:00.613Z,243.4167
2023-04-16T09:43:05.018Z,244.4167
2023-04-16T09:44:08.918Z,243.5833
2023-04-16T09:45:12.791Z,244.1667
2023-04-16T09:46:16.704Z,246.5833
2023-04-16T09:47:20.598Z,243.5000
2023-04-16T09:48:24.476Z,243.5833
2023-04-16T09:49:28.407Z,245.0833
2023-04-16T09:50:32.315Z,242.2500
2023-04-16T09:51:36.220Z,246.1667
2023-04-16T09:52:40.341Z,245.8333
2023-04-16T09:53:44.220Z,245.5000
2023-04-16T09:54:48.116Z,246.0833
2023-04-16T09:55:52.248Z,245.0000
2023-04-16T09:56:56.161Z,245.0000
2023-04-16T09:58:00.084Z,248.3333
2023-04-16T09:59:04.006Z,247.3333
2023-04-16T10:00:07.926Z,245.8333
2023-04-16T10:01:12.006Z,247.6667
2023-04-16T10:02:16.560Z,246.9167
2023-04-16T10:03:20.657Z,246.2500
2023-04-16T10:04:24.572Z,245.6667
2023-04-16T10:05:28.525Z,248.6667
2023-04-16T10:06:32.407Z,245.9167
2023-04-16T10:07:36.528Z,247.3333
2023-04-16T10:08:40.408Z,246.5000
2023-04-16T10:09:44.272Z,248.3333
2023-04-16T10:10:48.153Z,249.0833
2023-04-16T10:11:52.051Z,248.9167
2023-04-16T10:12:56.188Z,250.3333
2023-04-16T10:14:00.172Z,250.5833
2023-04-16T10:15:04.311Z,250.5000
2023-04-16T10:16:08.201Z,250.1667
2023-04-16T10:17:12.117Z,251.2500
2023-04-16T10:18:16.008Z,253.5000
2023-04-16T10:19:19.929Z,252.4167
2023-04-16T10:20:23.823Z,252.8333
2023-04-16T10:21:27.740Z,255.3333
2023-04-16T10:22:31.614Z,249.5000
2023-04-16T10:23:35.508Z,250.9167
2023-04-16T10:24:39.417Z,252.7500
2023-04-16T10:25:43.545Z,251.4167
2023-04-16T10:26:47.428Z,250.0833
2023-04-16T10:27:51.560Z,251.5833
2023-04-16T10:28:55.456Z,251.8333
2023-04-16T10:29:59.342Z,250.0000
2023-04-16T10:31:03.281Z,248.4167
2023-04-16T10:32:07.159Z,247.5000
2023-04-16T10:33:11.093Z,248.2500
2023-04-16T10:34:14.964Z,248.3333
2023-04-16T10:35:18.870Z,249.5000
2023-04-16T10:36:22.779Z,250.1667
2023-04-16T10:37:26.976Z,250.5833
2023-04-16T10:38:30.880Z,253.5000
2023-04-16T10:39:34.805Z,253.5833
2023-04-16T10:40:38.725Z,253.6667
2023-04-16T10:41:42.628Z,254.1667
2023-04-16T10:42:46.535Z,254.2500
2023-04-16T10:43:50.450Z,256.7500
2023-04-16T10:44:54.342Z,253.6667
2023-04-16T10:45:58.482Z,256.3333
2023-04-16T10:47:02.418Z,253.7500
2023-04-16T10:48:06.350Z,258.0833
2023-04-16T10:49:10.319Z,257.5000
2023-04-16T10:50:14.545Z,257.5833
2023-04-16T10:51:18.466Z,258.6667
2023-04-16T10:52:22.393Z,262.6667
2023-04-16T10:53:26.269Z,264.6667
2023-04-16T10:54:30.143Z,261.9167
2023-04-16T10:55:34.025Z,266.4167
2023-04-16T10:56:37.908Z,259.5000
2023-04-16T10:57:41.787Z,264.9167
2023-04-16T10:58:45.673Z,263.1667
2023-04-16T10:59:49.902Z,262.0000
2023-04-16T11:00:53.810Z,261.7500
2023-04-16T11:01:57.798Z,259.2500
2023-04-16T11:03:01.768Z,257.9167
2023-04-16T11:04:05.793Z,257.1667
2023-04-16T11:05:09.755Z,258.5000
2023-04-16T11:06:13.676Z,259.8333
2023-04-16T11:07:17.568Z,261.0000
2023-04-16T11:08:21.440Z,259.4167
2023-04-16T11:09:25.347Z,260.5000
2023-04-16T11:10:29.459Z,264.4167
2023-04-16T11:11:33.375Z,264.8333
2023-04-16T11:12:37.399Z,267.9167
2023-04-16T11:13:43.133Z,268.3333
2023-04-16T11:14:42.124Z,267.0000
2023-04-16T11:15:46.274Z,269.9167
2023-04-16T11:16:50.159Z,272.5833
2023-04-16T11:17:54.152Z,272.1667
2023-04-16T11:18:58.027Z,267.1667
2023-04-16T11:20:02.136Z,273.9167
2023-04-16T11:21:06.042Z,267.5000
2023-04-16T11:22:09.960Z,269.8333
2023-04-16T11:23:10.310Z,263.0000
2023-04-16T11:24:14.254Z,275.3333
2023-04-16T11:25:18.135Z,273.0833
2023-04-16T11:26:22.016Z,273.1667
2023-04-16T11:27:25.915Z,273.5000
2023-04-16T11:28:29.801Z,274.5833
2023-04-16T11:29:33.689Z,273.6667
2023-04-16T11:30:37.584Z,271.5000
2023-04-16T11:31:41.495Z,269.7500
2023-04-16T11:32:45.419Z,274.5000
2023-04-16T11:33:49.276Z,266.0833
2023-04-16T11:34:53.387Z,268.2500
2023-04-16T11:35:57.279Z,269.0000
2023-04-16T11:37:01.169Z,273.2500
2023-04-16T11:38:05.317Z,274.1667
2023-04-16T11:39:09.323Z,270.7500
2023-04-16T11:40:13.624Z,271.0833
2023-04-16T11:41:17.480Z,269.1667
2023-04-16T11:42:21.613Z,271.4167
2023-04-16T11:43:25.504Z,269.8333
2023-04-16T11:44:29.386Z,270.0000
2023-04-16T11:45:33.282Z,265.9167
2023-04-16T11:46:37.196Z,271.0000
2023-04-16T11:47:41.123Z,268.3333
2023-04-16T11:48:45.045Z,267.3333
2023-04-16T11:49:48.953Z,267.0833
2023-04-16T11:50:52.826Z,271.7500
2023-04-16T11:51:56.742Z,265.1667
2023-04-16T11:53:00.829Z,262.9167
2023-04-16T11:54:04.733Z,259.6667
2023-04-16T11:55:08.845Z,263.7500
2023-04-16T11:56:12.743Z,262.0833
2023-04-16T11:57:16.652Z,266.6667
2023-04-16T11:58:20.541Z,268.4167
2023-04-16T11:59:21.384Z,263.0000
2023-04-16T12:00:25.270Z,262.0000
2023-04-16T12:01:29.178Z,263.9167
2023-04-16T12:02:33.148Z,266.0000
2023-04-16T12:03:37.339Z,258.7500
2023-04-16T12:04:41.485Z,260.0000
2023-04-16T12:05:45.387Z,258.0833
2023-04-16T12:06:49.293Z,258.7500
2023-04-16T12:07:53.478Z,259.9167
2023-04-16T12:08:57.366Z,259.9167
2023-04-16T12:10:01.276Z,261.7500
2023-04-16T12:11:05.174Z,265.6667
2023-04-16T12:12:09.319Z,263.0000
2023-04-16T12:13:13.218Z,264.5000
2023-04-16T12:14:17.121Z,268.5000
2023-04-16T12:15:21.249Z,266.5833
2023-04-16T12:16:25.157Z,267.2500
2023-04-16T12:17:29.084Z,269.0833
2023-04-16T12:18:32.935Z,265.7500
2023-04-16T12:19:36.842Z,265.2500
2023-04-16T12:20:40.723Z,262.5000
2023-04-16T12:21:44.604Z,267.9167
2023-04-16T12:22:48.751Z,263.1667
2023-04-16T12:23:52.627Z,260.5833
2023-04-16T12:24:56.757Z,260.9167
2023-04-16T12:26:00.646Z,263.3333
2023-04-16T12:27:04.552Z,262.1667
2023-04-16T12:28:08.421Z,259.7500
2023-04-16T12:29:12.313Z,268.0833
2023-04-16T12:30:16.432Z,263.9167